createdAt,value
2022-10-16T00:01:47.060Z,16.63
2022-10-16T00:04:15.851Z,16.59
2022-10-16T00:06:44.231Z,16.68
2022-10-16T00:09:12.576Z,16.56
2022-10-16T00:11:43.070Z,16.62
2022-10-16T00:14:15.692Z,16.38
2022-10-16T00:16:45.623Z,16.56
2022-10-16T00:19:14.369Z,16.52
2022-10-16T00:21:43.248Z,16.51
2022-10-16T00:24:12.330Z,16.54
2022-10-16T00:26:41.560Z,16.55
2022-10-16T00:29:11.268Z,16.08
2022-10-16T00:31:39.566Z,16.60
2022-10-16T00:34:09.244Z,16.67
2022-10-16T00:36:37.556Z,16.61
2022-10-16T00:39:06.273Z,15.96
2022-10-16T00:41:35.304Z,16.59
2022-10-16T00:44:06.127Z,16.51
2022-10-16T00:46:40.591Z,16.44
2022-10-16T00:49:14.616Z,16.49
2022-10-16T00:51:47.645Z,16.54
2022-10-16T00:54:20.261Z,16.34
2022-10-16T00:56:49.279Z,16.46
2022-10-16T00:59:20.699Z,16.55
2022-10-16T01:01:49.119Z,16.53
2022-10-16T01:04:18.886Z,16.49
2022-10-16T01:06:57.197Z,16.37
2022-10-16T01:09:33.192Z,16.41
2022-10-16T01:12:11.463Z,16.40
2022-10-16T01:14:48.351Z,16.33
2022-10-16T01:17:21.338Z,16.41
2022-10-16T01:20:08.046Z,16.37
2022-10-16T01:22:49.399Z,16.25
2022-10-16T01:25:27.826Z,16.36
2022-10-16T01:27:58.250Z,16.33
2022-10-16T01:30:30.319Z,16.35
2022-10-16T01:33:04.627Z,16.27
2022-10-16T01:35:37.873Z,16.20
2022-10-16T01:38:11.097Z,16.29
2022-10-16T01:40:43.898Z,16.21
2022-10-16T01:43:16.700Z,16.17
2022-10-16T01:45:47.222Z,16.18
2022-10-16T01:48:20.226Z,16.02
2022-10-16T01:50:56.893Z,16.08
2022-10-16T01:53:26.849Z,16.24
2022-10-16T01:55:58.095Z,16.21
2022-10-16T01:58:31.838Z,16.08
2022-10-16T02:01:00.487Z,16.10
2022-10-16T02:03:29.042Z,16.11
2022-10-16T02:06:00.248Z,16.09
2022-10-16T02:08:32.002Z,16.09
2022-10-16T02:11:02.724Z,15.95
2022-10-16T02:13:38.121Z,16.12
2022-10-16T02:16:07.525Z,16.03
2022-10-16T02:18:36.039Z,16.13
2022-10-16T02:21:12.863Z,16.12
2022-10-16T02:23:48.613Z,15.84
2022-10-16T02:26:23.226Z,16.11
2022-10-16T02:28:58.951Z,15.38
2022-10-16T02:31:30.518Z,16.13
2022-10-16T02:34:01.537Z,16.07
2022-10-16T02:36:30.321Z,15.99
2022-10-16T02:38:58.805Z,16.05
2022-10-16T02:41:27.718Z,16.05
2022-10-16T02:43:57.365Z,15.99
2022-10-16T02:46:25.704Z,15.97
2022-10-16T02:48:53.963Z,15.98
2022-10-16T02:51:22.315Z,15.98
2022-10-16T02:53:50.603Z,16.01
2022-10-16T02:58:52.172Z,15.96
2022-10-16T03:01:21.935Z,16.05
2022-10-16T03:03:50.592Z,15.94
2022-10-16T03:06:18.846Z,16.03
2022-10-16T03:08:47.173Z,16.04
2022-10-16T03:11:15.370Z,16.05
2022-10-16T03:13:43.740Z,16.09
2022-10-16T03:16:12.210Z,16.11
2022-10-16T03:18:41.854Z,16.02
2022-10-16T03:21:10.296Z,16.12
2022-10-16T03:23:38.585Z,16.17
2022-10-16T03:26:07.202Z,16.04
2022-10-16T03:28:35.607Z,16.12
2022-10-16T03:31:03.889Z,16.11
2022-10-16T03:33:32.287Z,16.16
2022-10-16T03:36:02.090Z,16.21
2022-10-16T03:38:30.520Z,16.21
2022-10-16T03:40:58.781Z,16.26
2022-10-16T03:43:27.088Z,16.24
2022-10-16T03:45:55.420Z,16.29
2022-10-16T03:48:23.831Z,15.76
2022-10-16T03:50:52.704Z,16.21
2022-10-16T03:53:22.643Z,16.18
2022-10-16T03:55:50.924Z,16.22
2022-10-16T03:58:21.010Z,16.17
2022-10-16T04:00:49.568Z,16.15
2022-10-16T04:03:19.782Z,16.15
2022-10-16T04:05:48.187Z,16.17
2022-10-16T04:08:16.479Z,16.12
2022-10-16T04:10:46.432Z,16.17
2022-10-16T04:13:14.912Z,16.17
2022-10-16T04:15:43.722Z,16.14
2022-10-16T04:18:11.979Z,16.18
2022-10-16T04:20:40.339Z,16.19
2022-10-16T04:23:08.736Z,16.08
2022-10-16T04:25:37.123Z,16.17
2022-10-16T04:28:06.871Z,16.09
2022-10-16T04:30:35.556Z,16.05
2022-10-16T04:33:04.124Z,16.10
2022-10-16T04:35:32.544Z,15.91
2022-10-16T04:38:01.007Z,16.05
2022-10-16T04:40:29.250Z,16.15
2022-10-16T04:42:57.562Z,16.14
2022-10-16T04:45:27.364Z,16.12
2022-10-16T04:47:58.882Z,16.01
2022-10-16T04:50:27.408Z,15.96
2022-10-16T04:53:08.099Z,16.02
2022-10-16T04:55:37.202Z,15.82
2022-10-16T04:58:06.005Z,16.00
2022-10-16T05:00:35.806Z,15.88
2022-10-16T05:03:07.148Z,15.84
2022-10-16T05:05:35.984Z,16.08
2022-10-16T05:08:05.010Z,16.01
2022-10-16T05:10:33.285Z,16.07
2022-10-16T05:13:01.550Z,16.10
2022-10-16T05:15:29.965Z,16.10
2022-10-16T05:17:59.551Z,16.11
2022-10-16T05:20:28.116Z,15.98
2022-10-16T05:22:56.439Z,15.95
2022-10-16T05:25:24.731Z,16.05
2022-10-16T05:27:53.021Z,16.04
2022-10-16T05:30:21.325Z,16.02
2022-10-16T05:32:50.370Z,15.89
2022-10-16T05:35:21.547Z,15.89
2022-10-16T05:37:50.014Z,16.02
2022-10-16T05:40:19.012Z,15.97
2022-10-16T05:42:47.516Z,15.99
2022-10-16T05:45:15.772Z,15.91
2022-10-16T05:47:44.101Z,15.94
2022-10-16T05:50:12.429Z,15.85
2022-10-16T05:52:42.116Z,15.77
2022-10-16T05:55:10.869Z,15.67
2022-10-16T05:57:39.570Z,15.70
2022-10-16T06:00:09.672Z,15.04
2022-10-16T06:02:43.591Z,15.68
2022-10-16T06:05:11.930Z,15.75
2022-10-16T06:07:41.600Z,15.66
2022-10-16T06:10:10.981Z,15.71
2022-10-16T06:12:39.460Z,15.74
2022-10-16T06:15:08.675Z,15.65
2022-10-16T06:17:37.042Z,15.67
2022-10-16T06:20:06.073Z,15.65
2022-10-16T06:22:34.437Z,15.69
2022-10-16T06:25:04.495Z,15.69
2022-10-16T06:27:32.834Z,15.28
2022-10-16T06:30:01.104Z,15.66
2022-10-16T06:32:29.981Z,15.66
2022-10-16T06:34:58.210Z,15.57
2022-10-16T06:37:27.173Z,15.45
2022-10-16T06:39:55.908Z,15.62
2022-10-16T06:42:25.945Z,15.62
2022-10-16T06:44:54.531Z,15.62
2022-10-16T06:47:22.816Z,15.67
2022-10-16T06:49:54.227Z,15.71
2022-10-16T06:52:23.125Z,15.72
2022-10-16T06:54:52.265Z,15.67
2022-10-16T06:57:20.661Z,15.53
2022-10-16T06:59:55.113Z,15.62
2022-10-16T07:02:23.933Z,15.73
2022-10-16T07:04:52.761Z,15.70
2022-10-16T07:07:21.129Z,15.84
2022-10-16T07:09:49.382Z,16.11
2022-10-16T07:12:17.767Z,16.33
2022-10-16T07:14:46.548Z,16.60
2022-10-16T07:17:16.227Z,16.89
2022-10-16T07:19:44.464Z,17.07
2022-10-16T07:22:12.811Z,17.22
2022-10-16T07:24:41.067Z,17.58
2022-10-16T07:27:09.492Z,17.80
2022-10-16T07:29:37.889Z,17.43
2022-10-16T07:32:06.622Z,18.22
2022-10-16T07:34:36.319Z,18.31
2022-10-16T07:37:04.658Z,18.44
2022-10-16T07:39:32.969Z,18.63
2022-10-16T07:42:01.268Z,18.91
2022-10-16T07:44:29.665Z,19.16
2022-10-16T07:46:58.628Z,19.29
2022-10-16T07:49:26.925Z,19.39
2022-10-16T07:51:56.563Z,19.56
2022-10-16T07:54:24.905Z,19.71
2022-10-16T07:56:53.180Z,19.52
2022-10-16T07:59:21.494Z,19.90
2022-10-16T08:01:51.543Z,19.93
2022-10-16T08:04:19.934Z,20.22
2022-10-16T08:06:48.242Z,20.20
2022-10-16T08:09:18.230Z,20.38
2022-10-16T08:11:46.555Z,20.48
2022-10-16T08:14:14.819Z,20.71
2022-10-16T08:16:43.239Z,20.77
2022-10-16T08:19:11.492Z,20.79
2022-10-16T08:21:39.808Z,21.03
2022-10-16T08:24:08.154Z,21.11
2022-10-16T08:26:37.851Z,21.23
2022-10-16T08:29:06.392Z,21.41
2022-10-16T08:31:34.992Z,21.47
2022-10-16T08:34:03.565Z,21.63
2022-10-16T08:36:31.917Z,21.73
2022-10-16T08:39:00.208Z,21.67
2022-10-16T08:42:01.308Z,21.71
2022-10-16T08:45:17.754Z,21.81
2022-10-16T08:47:52.238Z,21.78
2022-10-16T08:50:28.022Z,21.89
2022-10-16T08:52:57.925Z,22.01
2022-10-16T08:55:35.296Z,21.30
2022-10-16T08:58:13.352Z,21.99
2022-10-16T09:00:42.031Z,22.03
2022-10-16T09:03:20.202Z,22.14
2022-10-16T09:06:02.710Z,22.43
2022-10-16T09:08:41.806Z,22.52
2022-10-16T09:11:18.763Z,22.57
2022-10-16T09:13:58.263Z,22.91
2022-10-16T09:16:32.005Z,23.11
2022-10-16T09:19:08.122Z,23.02
2022-10-16T09:21:41.510Z,22.94
2022-10-16T09:24:16.635Z,22.98
2022-10-16T09:26:45.600Z,23.17
2022-10-16T09:29:15.958Z,23.19
2022-10-16T09:31:45.189Z,23.03
2022-10-16T09:34:27.379Z,23.31
2022-10-16T09:36:56.141Z,23.17
2022-10-16T09:39:24.399Z,23.18
2022-10-16T09:41:53.583Z,23.02
2022-10-16T09:44:28.814Z,23.04
2022-10-16T09:47:05.239Z,23.21
2022-10-16T09:49:35.019Z,23.22
2022-10-16T09:52:08.029Z,23.25
2022-10-16T09:54:36.352Z,23.23
2022-10-16T09:57:09.176Z,23.02
2022-10-16T09:59:49.550Z,22.21
2022-10-16T10:02:19.992Z,22.64
2022-10-16T10:04:55.172Z,22.59
2022-10-16T10:07:28.586Z,22.69
2022-10-16T10:09:58.952Z,22.88
2022-10-16T10:12:30.240Z,22.94
2022-10-16T10:15:06.609Z,22.81
2022-10-16T10:17:35.404Z,22.82
2022-10-16T10:20:23.951Z,22.74
2022-10-16T10:22:52.381Z,22.80
2022-10-16T10:25:41.349Z,22.98
2022-10-16T10:28:39.387Z,23.21
2022-10-16T10:31:17.859Z,23.16
2022-10-16T10:33:51.694Z,23.12
2022-10-16T10:36:31.489Z,22.76
2022-10-16T10:39:03.826Z,22.68
2022-10-16T10:42:18.311Z,23.07
2022-10-16T10:45:13.681Z,23.30
2022-10-16T10:47:57.679Z,23.38
2022-10-16T10:50:33.365Z,23.68
2022-10-16T10:53:14.270Z,24.01
2022-10-16T10:55:50.027Z,23.65
2022-10-16T10:58:59.656Z,24.17
2022-10-16T11:01:38.245Z,24.20
2022-10-16T11:04:52.338Z,24.17
2022-10-16T11:07:28.389Z,24.00
2022-10-16T11:10:03.705Z,23.91
2022-10-16T11:12:37.206Z,23.81
2022-10-16T11:15:14.601Z,23.72
2022-10-16T11:17:47.944Z,23.35
2022-10-16T11:20:23.805Z,23.32
2022-10-16T11:22:58.388Z,22.75
2022-10-16T11:25:30.046Z,23.03
2022-10-16T11:28:05.065Z,22.77
2022-10-16T11:30:42.947Z,22.62
2022-10-16T11:33:32.703Z,22.55
2022-10-16T11:36:12.563Z,22.61
2022-10-16T11:38:51.303Z,22.76
2022-10-16T11:41:28.163Z,22.67
2022-10-16T11:44:13.513Z,22.81
2022-10-16T11:46:59.182Z,22.84
2022-10-16T11:49:38.584Z,22.80
2022-10-16T11:52:19.605Z,22.71
2022-10-16T11:54:53.966Z,22.58
2022-10-16T11:57:26.775Z,22.66
2022-10-16T12:00:00.108Z,22.89
2022-10-16T12:02:56.908Z,22.79
2022-10-16T12:05:35.661Z,23.30
2022-10-16T12:08:12.376Z,23.41
2022-10-16T12:10:43.594Z,23.29
2022-10-16T12:13:35.247Z,23.15
2022-10-16T12:16:24.509Z,23.12
2022-10-16T12:19:13.433Z,23.36
2022-10-16T12:21:42.643Z,23.16
2022-10-16T12:24:38.394Z,23.27
2022-10-16T12:27:23.968Z,23.23
2022-10-16T12:29:58.523Z,23.20
2022-10-16T12:32:48.644Z,23.19
2022-10-16T12:35:24.727Z,23.26
2022-10-16T12:37:54.243Z,23.35
2022-10-16T12:40:33.547Z,23.50
2022-10-16T12:43:13.901Z,23.48
2022-10-16T12:45:42.279Z,23.51
2022-10-16T12:48:29.123Z,23.39
2022-10-16T12:51:26.810Z,23.27
2022-10-16T12:54:02.177Z,22.81
2022-10-16T12:56:46.254Z,22.89
2022-10-16T12:59:27.409Z,22.74
2022-10-16T13:02:18.303Z,22.21
2022-10-16T13:05:05.091Z,22.59
2022-10-16T13:07:57.570Z,22.29
2022-10-16T13:10:35.265Z,22.22
2022-10-16T13:13:59.615Z,22.17
2022-10-16T13:16:39.470Z,22.02
2022-10-16T13:19:21.199Z,21.82
2022-10-16T13:21:58.503Z,21.81
2022-10-16T13:24:51.930Z,21.83
2022-10-16T13:27:33.596Z,21.38
2022-10-16T13:30:14.907Z,21.60
2022-10-16T13:32:47.821Z,21.46
2022-10-16T13:35:29.138Z,21.45
2022-10-16T13:38:17.195Z,21.48
2022-10-16T13:40:55.207Z,21.33
2022-10-16T13:43:28.250Z,21.44
2022-10-16T13:46:02.811Z,21.53
2022-10-16T13:48:32.065Z,21.55
2022-10-16T13:51:07.762Z,21.52
2022-10-16T13:53:37.919Z,21.58
2022-10-16T13:56:08.863Z,21.58
2022-10-16T13:58:37.306Z,21.67
2022-10-16T14:01:18.748Z,21.74
2022-10-16T14:03:47.908Z,21.81
2022-10-16T14:06:19.005Z,21.79
2022-10-16T14:08:59.475Z,21.61
2022-10-16T14:11:28.314Z,21.73
2022-10-16T14:13:57.462Z,21.70
2022-10-16T14:16:31.845Z,21.69
2022-10-16T14:19:07.352Z,21.47
2022-10-16T14:21:36.684Z,21.51
2022-10-16T14:24:14.333Z,21.46
2022-10-16T14:26:51.112Z,21.40
2022-10-16T14:29:22.337Z,21.15
2022-10-16T14:32:00.313Z,21.23
2022-10-16T14:34:33.804Z,21.12
2022-10-16T14:39:42.505Z,21.29
2022-10-16T14:42:18.755Z,21.26
2022-10-16T14:44:48.305Z,21.29
2022-10-16T14:47:23.432Z,21.33
2022-10-16T14:49:51.854Z,21.40
2022-10-16T14:52:20.495Z,21.33
2022-10-16T14:54:51.254Z,21.39
2022-10-16T14:57:21.010Z,21.13
2022-10-16T14:59:52.142Z,21.41
2022-10-16T15:02:30.478Z,19.15
2022-10-16T15:07:28.326Z,21.27
2022-10-16T15:09:58.015Z,21.13
2022-10-16T15:12:26.284Z,21.05
2022-10-16T15:14:54.619Z,20.78
2022-10-16T15:17:24.450Z,20.77
2022-10-16T15:19:53.052Z,20.78
2022-10-16T15:22:24.250Z,20.80
2022-10-16T15:24:52.575Z,20.73
2022-10-16T15:27:20.823Z,20.43
2022-10-16T15:29:49.195Z,19.76
2022-10-16T15:32:17.764Z,19.84
2022-10-16T15:34:47.390Z,19.69
2022-10-16T15:37:15.691Z,19.48
2022-10-16T15:39:44.052Z,19.38
2022-10-16T15:42:12.319Z,19.11
2022-10-16T15:44:40.615Z,18.96
2022-10-16T15:47:10.170Z,18.89
2022-10-16T15:49:38.396Z,18.77
2022-10-16T15:52:08.090Z,19.12
2022-10-16T15:54:37.813Z,19.02
2022-10-16T15:57:06.185Z,18.29
2022-10-16T15:59:34.494Z,18.80
2022-10-16T16:02:02.904Z,18.81
2022-10-16T16:04:43.564Z,19.00
2022-10-16T16:07:13.978Z,19.05
2022-10-16T16:09:42.560Z,18.91
2022-10-16T16:12:10.799Z,18.96
2022-10-16T16:14:39.145Z,18.91
2022-10-16T16:17:07.485Z,18.86
2022-10-16T16:19:35.863Z,18.60
2022-10-16T16:22:06.975Z,18.58
2022-10-16T16:24:39.033Z,18.72
2022-10-16T16:27:07.957Z,18.49
2022-10-16T16:29:36.582Z,18.30
2022-10-16T16:32:05.370Z,18.11
2022-10-16T16:34:33.639Z,18.36
2022-10-16T16:37:02.097Z,18.26
2022-10-16T16:39:30.436Z,18.11
2022-10-16T16:42:00.436Z,18.15
2022-10-16T16:44:28.821Z,18.36
2022-10-16T16:46:57.164Z,18.43
2022-10-16T16:49:25.561Z,18.36
2022-10-16T16:51:55.957Z,18.36
2022-10-16T16:54:24.518Z,18.40
2022-10-16T16:56:52.924Z,18.47
2022-10-16T16:59:23.500Z,18.53
2022-10-16T17:01:56.604Z,18.60
2022-10-16T17:04:25.828Z,18.72
2022-10-16T17:06:55.318Z,18.87
2022-10-16T17:09:24.283Z,18.36
2022-10-16T17:11:52.605Z,19.08
2022-10-16T17:14:22.295Z,18.87
2022-10-16T17:16:50.859Z,19.00
2022-10-16T17:19:21.489Z,18.93
2022-10-16T17:21:50.892Z,19.09
2022-10-16T17:24:21.069Z,19.21
2022-10-16T17:26:50.087Z,19.24
2022-10-16T17:29:19.361Z,19.16
2022-10-16T17:31:50.476Z,18.98
2022-10-16T17:34:19.596Z,18.72
2022-10-16T17:36:48.127Z,18.54
2022-10-16T17:39:19.106Z,18.45
2022-10-16T17:41:48.993Z,18.44
2022-10-16T17:44:20.933Z,18.23
2022-10-16T17:46:53.664Z,18.05
2022-10-16T17:49:22.619Z,17.66
2022-10-16T17:51:53.044Z,17.82
2022-10-16T17:54:22.101Z,17.62
2022-10-16T17:56:50.596Z,17.83
2022-10-16T17:59:22.876Z,17.71
2022-10-16T18:01:52.740Z,17.64
2022-10-16T18:04:21.128Z,17.80
2022-10-16T18:06:49.501Z,17.85
2022-10-16T18:09:20.863Z,17.79
2022-10-16T18:11:52.478Z,17.85
2022-10-16T18:14:20.962Z,17.79
2022-10-16T18:19:20.990Z,17.80
2022-10-16T18:21:49.519Z,17.78
2022-10-16T18:24:18.752Z,17.72
2022-10-16T18:26:47.163Z,17.62
2022-10-16T18:29:15.463Z,17.52
2022-10-16T18:31:43.834Z,17.55
2022-10-16T18:34:12.470Z,17.61
2022-10-16T18:36:43.010Z,17.70
2022-10-16T18:39:13.008Z,17.72
2022-10-16T18:41:44.706Z,17.79
2022-10-16T18:44:13.905Z,17.59
2022-10-16T18:46:42.653Z,17.30
2022-10-16T18:49:11.442Z,17.12
2022-10-16T18:51:44.034Z,17.11
2022-10-16T18:54:14.018Z,16.60
2022-10-16T18:56:42.392Z,16.51
2022-10-16T18:59:11.812Z,16.39
2022-10-16T19:01:40.895Z,16.30
2022-10-16T19:04:12.482Z,15.90
2022-10-16T19:06:44.820Z,15.68
2022-10-16T19:09:15.037Z,15.57
2022-10-16T19:11:44.502Z,16.21
2022-10-16T19:14:13.820Z,16.27
2022-10-16T19:16:43.471Z,16.35
2022-10-16T19:19:18.649Z,16.36
2022-10-16T19:21:51.210Z,16.40
2022-10-16T19:24:19.562Z,16.27
2022-10-16T19:26:48.662Z,16.03
2022-10-16T19:29:17.176Z,15.81
2022-10-16T19:31:45.449Z,15.81
2022-10-16T19:34:13.766Z,15.70
2022-10-16T19:36:42.423Z,15.68
2022-10-16T19:39:17.228Z,15.62
2022-10-16T19:41:47.441Z,15.09
2022-10-16T19:44:17.918Z,15.78
2022-10-16T19:46:48.119Z,15.90
2022-10-16T19:49:21.646Z,15.90
2022-10-16T19:51:51.792Z,15.99
2022-10-16T19:54:21.849Z,15.77
2022-10-16T19:56:50.233Z,15.35
2022-10-16T19:59:20.216Z,15.79
2022-10-16T20:01:49.132Z,15.70
2022-10-16T20:04:17.824Z,15.09
2022-10-16T20:06:46.309Z,15.55
2022-10-16T20:09:15.211Z,15.56
2022-10-16T20:11:45.003Z,15.56
2022-10-16T20:14:13.328Z,15.61
2022-10-16T20:16:41.660Z,15.70
2022-10-16T20:19:10.854Z,15.76
2022-10-16T20:21:39.159Z,15.62
2022-10-16T20:24:08.840Z,15.99
2022-10-16T20:26:38.239Z,16.00
2022-10-16T20:29:08.364Z,16.22
2022-10-16T20:31:36.962Z,16.18
2022-10-16T20:34:08.118Z,16.18
2022-10-16T20:36:38.219Z,16.19
2022-10-16T20:39:08.252Z,16.21
2022-10-16T20:41:37.388Z,16.24
2022-10-16T20:44:07.747Z,16.32
2022-10-16T20:46:36.123Z,16.17
2022-10-16T20:49:11.181Z,16.38
2022-10-16T20:51:39.973Z,16.36
2022-10-16T20:54:08.775Z,16.23
2022-10-16T20:56:38.559Z,16.24
2022-10-16T20:59:08.519Z,16.21
2022-10-16T21:01:37.441Z,16.35
2022-10-16T21:04:08.585Z,16.30
2022-10-16T21:06:39.995Z,16.43
2022-10-16T21:09:09.245Z,16.24
2022-10-16T21:11:38.858Z,16.52
2022-10-16T21:14:10.372Z,16.37
2022-10-16T21:16:38.833Z,16.45
2022-10-16T21:19:07.665Z,16.68
2022-10-16T21:21:38.890Z,16.53
2022-10-16T21:24:12.138Z,16.58
2022-10-16T21:26:43.593Z,16.48
2022-10-16T21:29:13.818Z,16.40
2022-10-16T21:31:42.575Z,16.53
2022-10-16T21:34:11.070Z,16.54
2022-10-16T21:36:42.374Z,16.51
2022-10-16T21:39:14.064Z,16.47
2022-10-16T21:41:47.032Z,16.39
2022-10-16T21:44:17.487Z,16.26
2022-10-16T21:46:46.344Z,15.93
2022-10-16T21:49:16.947Z,16.33
2022-10-16T21:51:47.279Z,16.41
2022-10-16T21:54:18.395Z,16.31
2022-10-16T21:56:46.822Z,16.58
2022-10-16T21:59:17.256Z,16.44
2022-10-16T22:01:46.031Z,16.62
2022-10-16T22:04:16.480Z,15.96
2022-10-16T22:06:44.975Z,16.52
2022-10-16T22:09:14.745Z,16.47
2022-10-16T22:11:45.437Z,16.47
2022-10-16T22:14:16.739Z,16.06
2022-10-16T22:16:45.735Z,16.44
2022-10-16T22:19:15.303Z,16.35
2022-10-16T22:21:45.997Z,16.24
2022-10-16T22:24:14.704Z,16.34
2022-10-16T22:26:43.030Z,16.29
2022-10-16T22:29:14.677Z,16.44
2022-10-16T22:31:45.364Z,16.23
2022-10-16T22:34:14.788Z,16.41
2022-10-16T22:36:43.094Z,16.44
2022-10-16T22:39:11.987Z,16.54
2022-10-16T22:41:40.265Z,16.32
2022-10-16T22:44:13.526Z,16.51
2022-10-16T22:46:43.264Z,16.54
2022-10-16T22:49:12.030Z,16.49
2022-10-16T22:51:40.427Z,16.39
2022-10-16T22:54:08.829Z,16.51
2022-10-16T22:56:37.081Z,16.50
2022-10-16T22:59:05.823Z,16.41
2022-10-16T23:01:37.171Z,16.44
2022-10-16T23:04:07.679Z,16.47
2022-10-16T23:06:36.277Z,16.43
2022-10-16T23:09:05.171Z,16.51
2022-10-16T23:11:34.412Z,16.45
2022-10-16T23:14:02.804Z,16.53
2022-10-16T23:16:31.181Z,16.66
2022-10-16T23:19:00.250Z,16.77
2022-10-16T23:21:30.091Z,16.70
2022-10-16T23:23:59.043Z,16.69
2022-10-16T23:26:28.775Z,16.78
2022-10-16T23:28:58.661Z,17.00
2022-10-16T23:31:27.337Z,17.11
2022-10-16T23:33:56.806Z,17.19
2022-10-16T23:36:25.794Z,17.31
2022-10-16T23:38:55.858Z,17.12
2022-10-16T23:41:24.150Z,16.60
2022-10-16T23:43:52.517Z,17.05
2022-10-16T23:53:09.392Z,16.67
2022-10-16T23:55:40.274Z,16.51
2022-10-16T23:58:08.683Z,16.38
